»·PEaware :: N377AM KPSP-KVNY

N377AM :: KPSP-KVNY

FLIGHT INFORMATION

Flight Status: Arrived
Operator: Privately registered:
United States
More flights under this callsign
Pilot: Andrew M. (139)
Aircraft: SOCATA TBM-900
(TBM9)
More flights by this aircraft type
Origin: KPSP Palm Springs Intl
United States
Destination: KVNY Van Nuys
United States
More flights between these airports :: More routes between these airports
Route: +CATH1 PSP V388 PDZ V197 POM V264 ITSME V186 VNY
File this flight plan on PilotEdge
Remarks:
Altitude:
(Current/Filed)
16,000ft
Speed:
(Current/Filed)
300kts
Departed: 19-Feb-19 07:02 PM
Arrived: 19-Feb-19 07:48 PM
Distance/Time
Traveled:
101nm/0:46
Distance/Time
To Go:
Arrived

Flight Plot

Page will automatically refresh every two minutes.

Flight plan parsing failed; only flown route is shown


Map Options




Map Legend


Flown Route
Filed Route
Departure Airport
Arrival Airport
Navaid (VOR, NDB)
Fix

Horizontal Profiles

Position Reports

Time Latitude Longitude Heading Altitude Ground
Speed
19-Feb-19 18:24 33.828297 -116.509201 187 425ft 0kts
19-Feb-19 18:25 33.828297 -116.509201 187 425ft 0kts
19-Feb-19 18:26 33.828297 -116.509201 187 425ft 0kts
19-Feb-19 18:27 33.828297 -116.509201 187 425ft 0kts
19-Feb-19 18:28 33.828297 -116.509201 187 425ft 0kts
19-Feb-19 18:29 33.828297 -116.509201 187 425ft 0kts
19-Feb-19 18:30 33.828297 -116.509201 187 425ft 0kts
19-Feb-19 18:31 33.828297 -116.509201 187 425ft 0kts
19-Feb-19 18:32 33.828297 -116.509201 187 425ft 0kts
19-Feb-19 18:33 33.828297 -116.509201 187 425ft 0kts
19-Feb-19 18:34 33.828297 -116.509201 187 425ft 0kts
19-Feb-19 18:35 33.828297 -116.509201 187 425ft 0kts
19-Feb-19 18:36 33.828297 -116.509201 187 425ft 0kts
19-Feb-19 18:37 33.828297 -116.509201 187 425ft 0kts
19-Feb-19 18:38 33.828297 -116.509201 187 425ft 0kts
19-Feb-19 18:39 33.828297 -116.509201 187 425ft 0kts
19-Feb-19 18:40 33.828297 -116.509201 187 425ft 0kts
19-Feb-19 18:41 33.828209 -116.509134 6 424ft 0kts
19-Feb-19 18:42 33.828209 -116.509134 6 424ft 0kts
19-Feb-19 18:43 33.828209 -116.509134 6 424ft 0kts
19-Feb-19 18:44 33.828209 -116.509134 6 424ft 0kts
19-Feb-19 18:45 33.828209 -116.509134 6 424ft 0kts
19-Feb-19 18:46 33.828209 -116.509134 6 424ft 0kts
19-Feb-19 18:47 33.828209 -116.509134 6 424ft 0kts
19-Feb-19 18:48 33.828209 -116.509134 6 424ft 0kts
19-Feb-19 18:49 33.828209 -116.509134 6 424ft 0kts
19-Feb-19 18:50 33.828660 -116.508911 89 425ft 6kts
19-Feb-19 18:51 33.826523 -116.506894 143 417ft 12kts
19-Feb-19 18:52 33.824004 -116.504687 145 411ft 10kts
19-Feb-19 18:53 33.821556 -116.502480 142 403ft 10kts
19-Feb-19 18:54 33.819279 -116.500450 143 398ft 9kts
19-Feb-19 18:55 33.818526 -116.499103 94 395ft 0kts
19-Feb-19 18:56 33.818526 -116.499103 94 395ft 0kts
19-Feb-19 18:57 33.818526 -116.499103 94 395ft 0kts
19-Feb-19 18:58 33.818526 -116.499103 94 395ft 0kts
19-Feb-19 18:59 33.818526 -116.499103 94 395ft 0kts
19-Feb-19 19:00 33.819117 -116.498326 340 393ft 7kts
19-Feb-19 19:01 33.836485 -116.514947 312 1097ft 124kts
19-Feb-19 19:02 33.861937 -116.539304 319 3174ft 116kts
19-Feb-19 19:03 33.887402 -116.563773 319 5332ft 121kts
19-Feb-19 19:04 33.908296 -116.548445 101 7532ft 147kts
19-Feb-19 19:05 33.893768 -116.501722 107 9545ft 156kts
19-Feb-19 19:06 33.877332 -116.452053 103 11424ft 163kts
19-Feb-19 19:08 33.856194 -116.397407 111 12042ft 224kts
19-Feb-19 19:09 33.830043 -116.335862 112 12008ft 246kts
19-Feb-19 19:10 33.856711 -116.303028 308 12019ft 195kts
19-Feb-19 19:11 33.843659 -116.370348 261 12004ft 218kts
19-Feb-19 19:12 33.842068 -116.423180 281 12006ft 208kts
19-Feb-19 19:13 33.849574 -116.491770 284 12006ft 208kts
19-Feb-19 19:14 33.854348 -116.560224 252 11990ft 223kts
19-Feb-19 19:15 33.853548 -116.628316 287 12011ft 206kts
19-Feb-19 19:16 33.871909 -116.686696 305 12009ft 201kts
19-Feb-19 19:17 33.902547 -116.745739 305 12008ft 202kts
19-Feb-19 19:18 33.927304 -116.793538 305 12003ft 201kts
19-Feb-19 19:19 33.944926 -116.855989 273 12017ft 213kts
19-Feb-19 19:20 33.942919 -116.914373 273 12012ft 213kts
19-Feb-19 19:21 33.940546 -116.980951 273 11977ft 214kts
19-Feb-19 19:22 33.937940 -117.052476 273 11976ft 214kts
19-Feb-19 19:23 33.935294 -117.124800 272 11975ft 216kts
19-Feb-19 19:24 33.932567 -117.193170 271 10943ft 206kts
19-Feb-19 19:25 33.929666 -117.260318 270 9724ft 201kts
19-Feb-19 19:26 33.926747 -117.327111 269 8992ft 204kts
19-Feb-19 19:26 33.924321 -117.384799 269 8985ft 216kts
19-Feb-19 19:28 33.920777 -117.471322 269 8981ft 221kts
19-Feb-19 19:29 33.928228 -117.545690 308 9008ft 222kts
19-Feb-19 19:30 33.965176 -117.605015 308 8982ft 227kts
19-Feb-19 19:30 33.995505 -117.653706 307 8980ft 227kts
19-Feb-19 19:31 34.033332 -117.714511 307 8980ft 228kts
19-Feb-19 19:33 34.077211 -117.788012 287 8953ft 231kts
19-Feb-19 19:33 34.077455 -117.850510 270 8982ft 232kts
19-Feb-19 19:34 34.076250 -117.928581 270 8991ft 229kts
19-Feb-19 19:35 34.075390 -118.005739 279 8993ft 226kts
19-Feb-19 19:36 34.096970 -118.076288 290 9021ft 217kts
19-Feb-19 19:37 34.116026 -118.138483 290 9021ft 215kts
19-Feb-19 19:38 34.136093 -118.204119 290 9018ft 214kts
19-Feb-19 19:39 34.149175 -118.270516 271 8778ft 218kts
19-Feb-19 19:40 34.149862 -118.346356 272 7590ft 225kts
19-Feb-19 19:41 34.150769 -118.416709 272 6311ft 185kts
19-Feb-19 19:42 34.151897 -118.471991 272 4936ft 139kts
19-Feb-19 19:43 34.178903 -118.479869 24 3144ft 128kts
19-Feb-19 19:44 34.208903 -118.468560 0 2101ft 103kts
19-Feb-19 19:45 34.234168 -118.473178 284 1875ft 89kts
19-Feb-19 19:46 34.221828 -118.491391 178 1045ft 87kts
19-Feb-19 19:47 34.208375 -118.490926 203 805ft 13kts

Navigation Log

Ident Type
Flight plan parsing failed, navigation log unavailable